< < Back
Terminal Aerodrome Forecast


Current Version              Previous Versions:   1  2  3  4  5  6  7  8  9  

Terminal Aerodrome Forecast

919
FTUS42 KILM 301100
TAFILM
TAF
KILM 301120Z 3012/3112 27010KT 6SM -SHRA BKN050 OVC100
     FM301300 31016G26KT P6SM FEW050
     FM310000 32010KT P6SM SKC=

Latest METAR

304
SAUS70 KWBC 311600 RRB
MTRILM
METAR KILM 311553Z AUTO 33007KT 10SM CLR 04/M13 A3038 RMK AO2 SLP287
T00441128


USA.gov is the U.S. government's official web portal to all federal, state and local government web resources and services.